Back to Top

Language: 

My Weather Underground Personal Weather Station Historical Data with Graphs...

Delerius Weather Station Historical Data
Daily Summary for February 4, 2017 Units:  Both    English   Metric
« Previous Day
Next Day »
Daily Weekly Monthly Yearly Custom
  High: Low: Average:
Temperature: 47.8 °F /  8.8 °C 35.1 °F /  1.7 °C 39.9 °F /  4.4 °C
Dew Point: 38.5 °F /  3.6 °C 32.7 °F /  0.4 °C 35.5 °F /  1.9 °C
Humidity: 93 % 63 % 85 %
Wind Speed: 12.0 mph /  19.3 km/h - 5.3 mph /  8.5 km/h
Wind Gust: 20.0 mph /  32.2 km/h - -
Wind:- - SSW
Pressure: 29.47 in /  997.9 hPa 29.17 in /  987.7 hPa -
Precipitation: 0.02 in /  0.51 mm    
Historical Graphs
 
 
Tabular Data for February 4, 2017
Time Temperature Dew Point Pressure Wind Wind Speed Wind Gust Humidity Rainfall Rate (Hourly) solar Conditions
00:05 40.5 °F /  4.7 °C 38.4 °F /  3.6 °C 29.17 in /  987.7 hPa West 8.0 mph /  12.9 km/h 11.0 mph /  17.7 km/h 92 % 0.09 in /  2.29 mm 0 W/m2
00:15 39.7 °F /  4.3 °C 37.8 °F /  3.2 °C 29.17 in /  987.7 hPa NW 10.0 mph /  16.1 km/h 14.0 mph /  22.5 km/h 93 % 0.06 in /  1.52 mm 0 W/m2
00:20 39.4 °F /  4.1 °C 37.5 °F /  3.1 °C 29.17 in /  987.7 hPa WNW 12.0 mph /  19.3 km/h 15.0 mph /  24.1 km/h 93 % 0.04 in /  1.02 mm 0 W/m2
00:25 39.2 °F /  4 °C 37.3 °F /  2.9 °C 29.17 in /  987.7 hPa West 12.0 mph /  19.3 km/h 15.0 mph /  24.1 km/h 93 % 0.00 in /  0 mm 0 W/m2
00:35 38.8 °F /  3.8 °C 36.7 °F /  2.6 °C 29.18 in /  988 hPa West 12.0 mph /  19.3 km/h 13.0 mph /  20.9 km/h 92 % 0.00 in /  0 mm 0 W/m2
00:40 38.7 °F /  3.7 °C 36.9 °F /  2.7 °C 29.18 in /  988 hPa WSW 11.0 mph /  17.7 km/h 11.0 mph /  17.7 km/h 93 % 0.00 in /  0 mm 0 W/m2
00:45 38.7 °F /  3.7 °C 36.9 °F /  2.7 °C 29.18 in /  988 hPa WSW 9.0 mph /  14.5 km/h 11.0 mph /  17.7 km/h 93 % 0.00 in /  0 mm 0 W/m2
00:50 38.6 °F /  3.7 °C 36.5 °F /  2.5 °C 29.18 in /  988 hPa West 9.0 mph /  14.5 km/h 11.0 mph /  17.7 km/h 92 % 0.00 in /  0 mm 0 W/m2
00:55 38.5 °F /  3.6 °C 36.7 °F /  2.6 °C 29.18 in /  988 hPa West 9.0 mph /  14.5 km/h 11.0 mph /  17.7 km/h 93 % 0.00 in /  0 mm 0 W/m2
01:05 38.4 °F /  3.6 °C 36.6 °F /  2.6 °C 29.19 in /  988.4 hPa WNW 10.0 mph /  16.1 km/h 20.0 mph /  32.2 km/h 93 % 0.00 in /  0 mm 0 W/m2
01:10 38.4 °F /  3.6 °C 36.6 °F /  2.6 °C 29.19 in /  988.4 hPa West 9.0 mph /  14.5 km/h 20.0 mph /  32.2 km/h 93 % 0.00 in /  0 mm 0 W/m2
01:15 38.4 °F /  3.6 °C 36.6 °F /  2.6 °C 29.20 in /  988.7 hPa WSW 9.0 mph /  14.5 km/h 20.0 mph /  32.2 km/h 93 % 0.00 in /  0 mm 0 W/m2
01:20 38.4 °F /  3.6 °C 36.6 °F /  2.6 °C 29.20 in /  988.7 hPa WNW 10.0 mph /  16.1 km/h 10.0 mph /  16.1 km/h 93 % 0.00 in /  0 mm 0 W/m2
01:25 38.3 °F /  3.5 °C 36.5 °F /  2.5 °C 29.20 in /  988.7 hPa WNW 10.0 mph /  16.1 km/h 20.0 mph /  32.2 km/h 93 % 0.00 in /  0 mm 0 W/m2
01:30 38.2 °F /  3.4 °C 36.4 °F /  2.4 °C 29.20 in /  988.7 hPa West 10.0 mph /  16.1 km/h 20.0 mph /  32.2 km/h 93 % 0.00 in /  0 mm 0 W/m2
01:35 38.2 °F /  3.4 °C 36.4 °F /  2.4 °C 29.21 in /  989.1 hPa West 9.0 mph /  14.5 km/h 20.0 mph /  32.2 km/h 93 % 0.00 in /  0 mm 0 W/m2
01:40 38.1 °F /  3.4 °C 36.3 °F /  2.4 °C 29.21 in /  989.1 hPa SW 8.0 mph /  12.9 km/h 20.0 mph /  32.2 km/h 93 % 0.00 in /  0 mm 0 W/m2
01:45 38.2 °F /  3.4 °C 36.4 °F /  2.4 °C 29.21 in /  989.1 hPa West 9.0 mph /  14.5 km/h 20.0 mph /  32.2 km/h 93 % 0.00 in /  0 mm 0 W/m2
01:50 38.2 °F /  3.4 °C 36.4 °F /  2.4 °C 29.21 in /  989.1 hPa WSW 9.0 mph /  14.5 km/h 20.0 mph /  32.2 km/h 93 % 0.00 in /  0 mm 0 W/m2
01:55 38.2 °F /  3.4 °C 36.4 °F /  2.4 °C 29.21 in /  989.1 hPa WNW 8.0 mph /  12.9 km/h 20.0 mph /  32.2 km/h 93 % 0.00 in /  0 mm 0 W/m2
02:00 38.3 °F /  3.5 °C 36.5 °F /  2.5 °C 29.21 in /  989.1 hPa West 8.0 mph /  12.9 km/h 20.0 mph /  32.2 km/h 93 % 0.00 in /  0 mm 0 W/m2
02:10 38.5 °F /  3.6 °C 36.7 °F /  2.6 °C 29.21 in /  989.1 hPa West 9.0 mph /  14.5 km/h 20.0 mph /  32.2 km/h 93 % 0.00 in /  0 mm 0 W/m2
02:15 38.7 °F /  3.7 °C 36.9 °F /  2.7 °C 29.22 in /  989.4 hPa West 9.0 mph /  14.5 km/h 20.0 mph /  32.2 km/h 93 % 0.00 in /  0 mm 0 W/m2
02:20 38.7 °F /  3.7 °C 36.9 °F /  2.7 °C 29.22 in /  989.4 hPa WNW 8.0 mph /  12.9 km/h 20.0 mph /  32.2 km/h 93 % 0.00 in /  0 mm 0 W/m2
02:25 38.7 °F /  3.7 °C 36.9 °F /  2.7 °C 29.23 in /  989.7 hPa WNW 7.0 mph /  11.3 km/h 20.0 mph /  32.2 km/h 93 % 0.00 in /  0 mm 0 W/m2
02:40 38.7 °F /  3.7 °C 36.9 °F /  2.7 °C 29.24 in /  990.1 hPa WSW 6.0 mph /  9.7 km/h 6.0 mph /  9.7 km/h 93 % 0.00 in /  0 mm 0 W/m2
02:45 38.6 °F /  3.7 °C 36.8 °F /  2.7 °C 29.24 in /  990.1 hPa West 6.0 mph /  9.7 km/h 9.0 mph /  14.5 km/h 93 % 0.00 in /  0 mm 0 W/m2
02:50 38.7 °F /  3.7 °C 36.9 °F /  2.7 °C 29.23 in /  989.7 hPa West 8.0 mph /  12.9 km/h 8.0 mph /  12.9 km/h 93 % 0.00 in /  0 mm 0 W/m2
02:55 38.7 °F /  3.7 °C 36.6 °F /  2.6 °C 29.23 in /  989.7 hPa WSW 8.0 mph /  12.9 km/h 20.0 mph /  32.2 km/h 92 % 0.00 in /  0 mm 0 W/m2
03:00 38.6 °F /  3.7 °C 36.5 °F /  2.5 °C 29.24 in /  990.1 hPa WSW 7.0 mph /  11.3 km/h 7.0 mph /  11.3 km/h 92 % 0.00 in /  0 mm 0 W/m2
03:05 38.6 °F /  3.7 °C 36.5 °F /  2.5 °C 29.24 in /  990.1 hPa SW 7.0 mph /  11.3 km/h 20.0 mph /  32.2 km/h 92 % 0.00 in /  0 mm 0 W/m2
03:10 38.7 °F /  3.7 °C 36.3 °F /  2.4 °C 29.24 in /  990.1 hPa SW 7.0 mph /  11.3 km/h 20.0 mph /  32.2 km/h 91 % 0.00 in /  0 mm 0 W/m2
03:15 38.6 °F /  3.7 °C 36.2 °F /  2.3 °C 29.25 in /  990.4 hPa SW 8.0 mph /  12.9 km/h 20.0 mph /  32.2 km/h 91 % 0.00 in /  0 mm 0 W/m2
03:20 38.6 °F /  3.7 °C 36.2 °F /  2.3 °C 29.25 in /  990.4 hPa SW 7.0 mph /  11.3 km/h 7.0 mph /  11.3 km/h 91 % 0.00 in /  0 mm 0 W/m2
03:25 38.6 °F /  3.7 °C 36.2 °F /  2.3 °C 29.25 in /  990.4 hPa WSW 7.0 mph /  11.3 km/h 20.0 mph /  32.2 km/h 91 % 0.00 in /  0 mm 0 W/m2
03:30 38.5 °F /  3.6 °C 36.1 °F /  2.3 °C 29.25 in /  990.4 hPa SW 7.0 mph /  11.3 km/h 20.0 mph /  32.2 km/h 91 % 0.00 in /  0 mm 0 W/m2
03:35 38.5 °F /  3.6 °C 35.8 °F /  2.1 °C 29.25 in /  990.4 hPa SW 6.0 mph /  9.7 km/h 20.0 mph /  32.2 km/h 90 % 0.00 in /  0 mm 0 W/m2
03:45 38.5 °F /  3.6 °C 35.8 °F /  2.1 °C 29.25 in /  990.4 hPa WSW 7.0 mph /  11.3 km/h 20.0 mph /  32.2 km/h 90 % 0.00 in /  0 mm 0 W/m2
03:50 38.5 °F /  3.6 °C 35.8 °F /  2.1 °C 29.26 in /  990.7 hPa SW 8.0 mph /  12.9 km/h 8.0 mph /  12.9 km/h 90 % 0.00 in /  0 mm 0 W/m2
03:55 38.4 °F /  3.6 °C 35.7 °F /  2.1 °C 29.26 in /  990.7 hPa SW 7.0 mph /  11.3 km/h 20.0 mph /  32.2 km/h 90 % 0.00 in /  0 mm 0 W/m2
04:00 38.4 °F /  3.6 °C 35.7 °F /  2.1 °C 29.26 in /  990.7 hPa WSW 7.0 mph /  11.3 km/h 7.0 mph /  11.3 km/h 90 % 0.00 in /  0 mm 0 W/m2
04:05 38.3 °F /  3.5 °C 35.6 °F /  2 °C 29.26 in /  990.7 hPa SW 6.0 mph /  9.7 km/h 20.0 mph /  32.2 km/h 90 % 0.00 in /  0 mm 0 W/m2
04:10 38.3 °F /  3.5 °C 35.6 °F /  2 °C 29.26 in /  990.7 hPa SW 6.0 mph /  9.7 km/h 20.0 mph /  32.2 km/h 90 % 0.00 in /  0 mm 0 W/m2
04:20 38.3 °F /  3.5 °C 35.6 °F /  2 °C 29.26 in /  990.7 hPa SSW 7.0 mph /  11.3 km/h 20.0 mph /  32.2 km/h 90 % 0.00 in /  0 mm 0 W/m2
04:25 38.2 °F /  3.4 °C 35.8 °F /  2.1 °C 29.26 in /  990.7 hPa SW 6.0 mph /  9.7 km/h 20.0 mph /  32.2 km/h 91 % 0.00 in /  0 mm 0 W/m2
04:30 38.2 °F /  3.4 °C 35.8 °F /  2.1 °C 29.27 in /  991.1 hPa SSW 6.0 mph /  9.7 km/h 6.0 mph /  9.7 km/h 91 % 0.00 in /  0 mm 0 W/m2
04:35 38.2 °F /  3.4 °C 35.8 °F /  2.1 °C 29.27 in /  991.1 hPa SW 6.0 mph /  9.7 km/h 7.0 mph /  11.3 km/h 91 % 0.00 in /  0 mm 0 W/m2
04:40 38.3 °F /  3.5 °C 35.9 °F /  2.2 °C 29.27 in /  991.1 hPa SW 6.0 mph /  9.7 km/h 20.0 mph /  32.2 km/h 91 % 0.00 in /  0 mm 0 W/m2
04:45 38.3 °F /  3.5 °C 35.9 °F /  2.2 °C 29.27 in /  991.1 hPa SW 6.0 mph /  9.7 km/h 20.0 mph /  32.2 km/h 91 % 0.00 in /  0 mm 0 W/m2
04:50 38.3 °F /  3.5 °C 35.9 °F /  2.2 °C 29.27 in /  991.1 hPa SW 6.0 mph /  9.7 km/h 6.0 mph /  9.7 km/h 91 % 0.00 in /  0 mm 0 W/m2
04:55 38.3 °F /  3.5 °C 35.9 °F /  2.2 °C 29.27 in /  991.1 hPa SW 7.0 mph /  11.3 km/h 7.0 mph /  11.3 km/h 91 % 0.00 in /  0 mm 0 W/m2
05:00 38.2 °F /  3.4 °C 35.5 °F /  1.9 °C 29.27 in /  991.1 hPa West 6.0 mph /  9.7 km/h 20.0 mph /  32.2 km/h 90 % 0.00 in /  0 mm 0 W/m2
05:05 38.2 °F /  3.4 °C 35.5 °F /  1.9 °C 29.27 in /  991.1 hPa WSW 6.0 mph /  9.7 km/h 20.0 mph /  32.2 km/h 90 % 0.00 in /  0 mm 0 W/m2
05:10 38.2 °F /  3.4 °C 35.5 °F /  1.9 °C 29.27 in /  991.1 hPa SSW 8.0 mph /  12.9 km/h 20.0 mph /  32.2 km/h 90 % 0.00 in /  0 mm 0 W/m2
05:20 38.2 °F /  3.4 °C 35.5 °F /  1.9 °C 29.27 in /  991.1 hPa SW 9.0 mph /  14.5 km/h 20.0 mph /  32.2 km/h 90 % 0.00 in /  0 mm 0 W/m2
05:25 38.1 °F /  3.4 °C 35.4 °F /  1.9 °C 29.27 in /  991.1 hPa SW 9.0 mph /  14.5 km/h 20.0 mph /  32.2 km/h 90 % 0.00 in /  0 mm 0 W/m2
05:30 38.1 °F /  3.4 °C 35.4 °F /  1.9 °C 29.27 in /  991.1 hPa SW 9.0 mph /  14.5 km/h 20.0 mph /  32.2 km/h 90 % 0.00 in /  0 mm 0 W/m2
05:35 38.0 °F /  3.3 °C 35.3 °F /  1.8 °C 29.28 in /  991.4 hPa SSW 9.0 mph /  14.5 km/h 20.0 mph /  32.2 km/h 90 % 0.00 in /  0 mm 0 W/m2
05:40 38.1 °F /  3.4 °C 35.4 °F /  1.9 °C 29.28 in /  991.4 hPa SSW 9.0 mph /  14.5 km/h 9.0 mph /  14.5 km/h 90 % 0.00 in /  0 mm 0 W/m2
05:45 38.0 °F /  3.3 °C 35.3 °F /  1.8 °C 29.28 in /  991.4 hPa SW 9.0 mph /  14.5 km/h 20.0 mph /  32.2 km/h 90 % 0.00 in /  0 mm 0 W/m2
05:55 37.8 °F /  3.2 °C 35.1 °F /  1.7 °C 29.28 in /  991.4 hPa SW 8.0 mph /  12.9 km/h 12.0 mph /  19.3 km/h 90 % 0.00 in /  0 mm 0 W/m2
06:00 37.8 °F /  3.2 °C 35.1 °F /  1.7 °C 29.28 in /  991.4 hPa WSW 9.0 mph /  14.5 km/h 9.0 mph /  14.5 km/h 90 % 0.00 in /  0 mm 0 W/m2
06:05 37.9 °F /  3.3 °C 35.2 °F /  1.8 °C 29.28 in /  991.4 hPa SW 8.0 mph /  12.9 km/h 20.0 mph /  32.2 km/h 90 % 0.00 in /  0 mm 0 W/m2
06:10 37.9 °F /  3.3 °C 35.2 °F /  1.8 °C 29.28 in /  991.4 hPa SW 8.0 mph /  12.9 km/h 8.0 mph /  12.9 km/h 90 % 0.00 in /  0 mm 0 W/m2
06:15 38.0 °F /  3.3 °C 35.3 °F /  1.8 °C 29.28 in /  991.4 hPa SW 8.0 mph /  12.9 km/h 20.0 mph /  32.2 km/h 90 % 0.00 in /  0 mm 0 W/m2
06:25 37.7 °F /  3.2 °C 35.0 °F /  1.7 °C 29.29 in /  991.8 hPa SSW 5.0 mph /  8 km/h 20.0 mph /  32.2 km/h 90 % 0.00 in /  0 mm 0 W/m2
06:30 37.6 °F /  3.1 °C 34.9 °F /  1.6 °C 29.29 in /  991.8 hPa SSW 4.0 mph /  6.4 km/h 4.0 mph /  6.4 km/h 90 % 0.00 in /  0 mm 0 W/m2
06:35 37.5 °F /  3.1 °C 34.8 °F /  1.6 °C 29.29 in /  991.8 hPa SSW 2.0 mph /  3.2 km/h 20.0 mph /  32.2 km/h 90 % 0.00 in /  0 mm 0 W/m2
06:40 37.3 °F /  2.9 °C 34.6 °F /  1.4 °C 29.30 in /  992.1 hPa NE 1.0 mph /  1.6 km/h 20.0 mph /  32.2 km/h 90 % 0.00 in /  0 mm 0 W/m2
06:45 37.0 °F /  2.8 °C 34.3 °F /  1.3 °C 29.30 in /  992.1 hPa NE 1.0 mph /  1.6 km/h 20.0 mph /  32.2 km/h 90 % 0.00 in /  0 mm 0 W/m2
06:50 36.7 °F /  2.6 °C 34.0 °F /  1.1 °C 29.30 in /  992.1 hPa ENE 2.0 mph /  3.2 km/h 2.0 mph /  3.2 km/h 90 % 0.00 in /  0 mm 0 W/m2
07:00 36.3 °F /  2.4 °C 33.9 °F /  1.1 °C 29.31 in /  992.4 hPa ENE 3.0 mph /  4.8 km/h 20.0 mph /  32.2 km/h 91 % 0.00 in /  0 mm 0 W/m2
07:05 36.2 °F /  2.3 °C 34.1 °F /  1.2 °C 29.31 in /  992.4 hPa ENE 4.0 mph /  6.4 km/h 20.0 mph /  32.2 km/h 92 % 0.00 in /  0 mm 0 W/m2
07:10 36.3 °F /  2.4 °C 34.2 °F /  1.2 °C 29.31 in /  992.4 hPa NE 5.0 mph /  8 km/h 20.0 mph /  32.2 km/h 92 % 0.00 in /  0 mm 0 W/m2
07:15 36.2 °F /  2.3 °C 34.1 °F /  1.2 °C 29.31 in /  992.4 hPa ESE 4.0 mph /  6.4 km/h 20.0 mph /  32.2 km/h 92 % 0.00 in /  0 mm 0 W/m2
07:20 36.3 °F /  2.4 °C 34.5 °F /  1.4 °C 29.31 in /  992.4 hPa ESE 3.0 mph /  4.8 km/h 20.0 mph /  32.2 km/h 93 % 0.00 in /  0 mm 0 W/m2
07:30 36.5 °F /  2.5 °C 34.4 °F /  1.3 °C 29.32 in /  992.8 hPa SSE 4.0 mph /  6.4 km/h 4.0 mph /  6.4 km/h 92 % 0.00 in /  0 mm 0 W/m2
07:35 36.5 °F /  2.5 °C 34.4 °F /  1.3 °C 29.33 in /  993.1 hPa SSE 2.0 mph /  3.2 km/h 20.0 mph /  32.2 km/h 92 % 0.00 in /  0 mm 0 W/m2
07:40 36.5 °F /  2.5 °C 34.4 °F /  1.3 °C 29.33 in /  993.1 hPa South 2.0 mph /  3.2 km/h 20.0 mph /  32.2 km/h 92 % 0.00 in /  0 mm 0 W/m2
07:45 36.6 °F /  2.6 °C 34.5 °F /  1.4 °C 29.33 in /  993.1 hPa SSW 4.0 mph /  6.4 km/h 20.0 mph /  32.2 km/h 92 % 0.00 in /  0 mm 0 W/m2
07:50 36.7 °F /  2.6 °C 34.6 °F /  1.4 °C 29.33 in /  993.1 hPa SSW 4.0 mph /  6.4 km/h 4.0 mph /  6.4 km/h 92 % 0.00 in /  0 mm 5 W/m2
07:55 36.7 °F /  2.6 °C 34.6 °F /  1.4 °C 29.33 in /  993.1 hPa SSW 3.0 mph /  4.8 km/h 20.0 mph /  32.2 km/h 92 % 0.00 in /  0 mm 7 W/m2
08:05 36.7 °F /  2.6 °C 34.6 °F /  1.4 °C 29.34 in /  993.5 hPa SSW 2.0 mph /  3.2 km/h 20.0 mph /  32.2 km/h 92 % 0.00 in /  0 mm 11 W/m2
08:10 36.7 °F /  2.6 °C 34.6 °F /  1.4 °C 29.34 in /  993.5 hPa SSW 1.0 mph /  1.6 km/h 20.0 mph /  32.2 km/h 92 % 0.00 in /  0 mm 14 W/m2
08:15 36.6 °F /  2.6 °C 34.5 °F /  1.4 °C 29.34 in /  993.5 hPa South 2.0 mph /  3.2 km/h 20.0 mph /  32.2 km/h 92 % 0.00 in /  0 mm 21 W/m2
08:20 36.6 °F /  2.6 °C 34.5 °F /  1.4 °C 29.34 in /  993.5 hPa SSE 3.0 mph /  4.8 km/h 3.0 mph /  4.8 km/h 92 % 0.00 in /  0 mm 26 W/m2
08:25 36.5 °F /  2.5 °C 34.4 °F /  1.3 °C 29.35 in /  993.8 hPa SSE 3.0 mph /  4.8 km/h 4.0 mph /  6.4 km/h 92 % 0.00 in /  0 mm 40 W/m2
08:30 36.6 °F /  2.6 °C 34.5 °F /  1.4 °C 29.35 in /  993.8 hPa SSE 3.0 mph /  4.8 km/h 20.0 mph /  32.2 km/h 92 % 0.00 in /  0 mm 49 W/m2
08:40 37.0 °F /  2.8 °C 35.2 °F /  1.8 °C 29.35 in /  993.8 hPa South 6.0 mph /  9.7 km/h 6.0 mph /  9.7 km/h 93 % 0.00 in /  0 mm 70 W/m2
08:45 37.2 °F /  2.9 °C 35.4 °F /  1.9 °C 29.35 in /  993.8 hPa SSE 5.0 mph /  8 km/h 20.0 mph /  32.2 km/h 93 % 0.00 in /  0 mm 76 W/m2
08:50 37.5 °F /  3.1 °C 35.4 °F /  1.9 °C 29.35 in /  993.8 hPa South 5.0 mph /  8 km/h 20.0 mph /  32.2 km/h 92 % 0.00 in /  0 mm 83 W/m2
08:55 37.7 °F /  3.2 °C 35.6 °F /  2 °C 29.35 in /  993.8 hPa South 5.0 mph /  8 km/h 20.0 mph /  32.2 km/h 92 % 0.00 in /  0 mm 91 W/m2
09:00 38.0 °F /  3.3 °C 35.9 °F /  2.2 °C 29.35 in /  993.8 hPa SSE 6.0 mph /  9.7 km/h 6.0 mph /  9.7 km/h 92 % 0.00 in /  0 mm 97 W/m2
09:05 38.2 °F /  3.4 °C 35.8 °F /  2.1 °C 29.36 in /  994.1 hPa South 6.0 mph /  9.7 km/h 20.0 mph /  32.2 km/h 91 % 0.00 in /  0 mm 98 W/m2
09:10 38.4 °F /  3.6 °C 36.0 °F /  2.2 °C 29.36 in /  994.1 hPa South 6.0 mph /  9.7 km/h 20.0 mph /  32.2 km/h 91 % 0.00 in /  0 mm 128 W/m2
09:15 38.7 °F /  3.7 °C 36.3 °F /  2.4 °C 29.36 in /  994.1 hPa SSW 6.0 mph /  9.7 km/h 20.0 mph /  32.2 km/h 91 % 0.00 in /  0 mm 199 W/m2
09:20 39.0 °F /  3.9 °C 36.6 °F /  2.6 °C 29.36 in /  994.1 hPa South 6.0 mph /  9.7 km/h 20.0 mph /  32.2 km/h 91 % 0.00 in /  0 mm 176 W/m2
09:25 39.2 °F /  4 °C 36.5 °F /  2.5 °C 29.37 in /  994.5 hPa South 6.0 mph /  9.7 km/h 20.0 mph /  32.2 km/h 90 % 0.00 in /  0 mm 213 W/m2
09:30 39.5 °F /  4.2 °C 36.5 °F /  2.5 °C 29.37 in /  994.5 hPa SSE 6.0 mph /  9.7 km/h 20.0 mph /  32.2 km/h 89 % 0.00 in /  0 mm 178 W/m2
09:40 40.2 °F /  4.6 °C 37.2 °F /  2.9 °C 29.37 in /  994.5 hPa SSW 6.0 mph /  9.7 km/h 20.0 mph /  32.2 km/h 89 % 0.00 in /  0 mm 178 W/m2
09:45 40.5 °F /  4.7 °C 37.2 °F /  2.9 °C 29.38 in /  994.8 hPa SSW 6.0 mph /  9.7 km/h 20.0 mph /  32.2 km/h 88 % 0.00 in /  0 mm 113 W/m2
09:50 40.5 °F /  4.7 °C 36.9 °F /  2.7 °C 29.38 in /  994.8 hPa SSW 7.0 mph /  11.3 km/h 7.0 mph /  11.3 km/h 87 % 0.00 in /  0 mm 116 W/m2
09:55 40.6 °F /  4.8 °C 36.7 °F /  2.6 °C 29.38 in /  994.8 hPa South 7.0 mph /  11.3 km/h 8.0 mph /  12.9 km/h 86 % 0.00 in /  0 mm 139 W/m2
10:00 40.6 °F /  4.8 °C 36.7 °F /  2.6 °C 29.39 in /  995.1 hPa South 7.0 mph /  11.3 km/h 20.0 mph /  32.2 km/h 86 % 0.00 in /  0 mm 158 W/m2
10:10 40.7 °F /  4.8 °C 36.8 °F /  2.7 °C 29.39 in /  995.1 hPa South 8.0 mph /  12.9 km/h 8.0 mph /  12.9 km/h 86 % 0.00 in /  0 mm 171 W/m2
10:15 40.8 °F /  4.9 °C 36.9 °F /  2.7 °C 29.39 in /  995.1 hPa SW 8.0 mph /  12.9 km/h 20.0 mph /  32.2 km/h 86 % 0.00 in /  0 mm 190 W/m2
10:20 40.9 °F /  4.9 °C 36.7 °F /  2.6 °C 29.39 in /  995.1 hPa SW 8.0 mph /  12.9 km/h 20.0 mph /  32.2 km/h 85 % 0.00 in /  0 mm 227 W/m2
10:25 41.1 °F /  5.1 °C 36.9 °F /  2.7 °C 29.40 in /  995.5 hPa SW 8.0 mph /  12.9 km/h 20.0 mph /  32.2 km/h 85 % 0.00 in /  0 mm 213 W/m2
10:30 41.2 °F /  5.1 °C 37.0 °F /  2.8 °C 29.40 in /  995.5 hPa SSW 8.0 mph /  12.9 km/h 20.0 mph /  32.2 km/h 85 % 0.00 in /  0 mm 243 W/m2
10:35 41.4 °F /  5.2 °C 37.2 °F /  2.9 °C 29.40 in /  995.5 hPa SW 9.0 mph /  14.5 km/h 20.0 mph /  32.2 km/h 85 % 0.00 in /  0 mm 248 W/m2
10:45 41.8 °F /  5.4 °C 37.3 °F /  2.9 °C 29.40 in /  995.5 hPa SW 8.0 mph /  12.9 km/h 20.0 mph /  32.2 km/h 84 % 0.00 in /  0 mm 274 W/m2
10:50 42.1 °F /  5.6 °C 37.6 °F /  3.1 °C 29.40 in /  995.5 hPa SSW 8.0 mph /  12.9 km/h 20.0 mph /  32.2 km/h 84 % 0.00 in /  0 mm 274 W/m2
10:55 42.3 °F /  5.7 °C 37.5 °F /  3.1 °C 29.40 in /  995.5 hPa WSW 8.0 mph /  12.9 km/h 20.0 mph /  32.2 km/h 83 % 0.00 in /  0 mm 309 W/m2
11:00 42.5 °F /  5.8 °C 37.7 °F /  3.2 °C 29.40 in /  995.5 hPa WSW 9.0 mph /  14.5 km/h 20.0 mph /  32.2 km/h 83 % 0.00 in /  0 mm 316 W/m2
11:05 42.8 °F /  6 °C 37.7 °F /  3.2 °C 29.40 in /  995.5 hPa SSW 10.0 mph /  16.1 km/h 20.0 mph /  32.2 km/h 82 % 0.00 in /  0 mm 260 W/m2
11:15 43.1 °F /  6.2 °C 37.7 °F /  3.2 °C 29.40 in /  995.5 hPa SW 10.0 mph /  16.1 km/h 12.0 mph /  19.3 km/h 81 % 0.00 in /  0 mm 364 W/m2
11:20 43.4 °F /  6.3 °C 37.6 °F /  3.1 °C 29.40 in /  995.5 hPa SW 10.0 mph /  16.1 km/h 20.0 mph /  32.2 km/h 80 % 0.00 in /  0 mm 366 W/m2
11:25 43.7 °F /  6.5 °C 37.9 °F /  3.3 °C 29.40 in /  995.5 hPa WSW 9.0 mph /  14.5 km/h 20.0 mph /  32.2 km/h 80 % 0.00 in /  0 mm 345 W/m2
11:30 43.9 °F /  6.6 °C 37.8 °F /  3.2 °C 29.40 in /  995.5 hPa West 10.0 mph /  16.1 km/h 20.0 mph /  32.2 km/h 79 % 0.00 in /  0 mm 376 W/m2
11:35 44.1 °F /  6.7 °C 38.0 °F /  3.3 °C 29.40 in /  995.5 hPa WSW 10.0 mph /  16.1 km/h 20.0 mph /  32.2 km/h 79 % 0.00 in /  0 mm 388 W/m2
11:40 44.6 °F /  7 °C 38.5 °F /  3.6 °C 29.40 in /  995.5 hPa SW 8.0 mph /  12.9 km/h 8.0 mph /  12.9 km/h 79 % 0.00 in /  0 mm 385 W/m2
11:50 45.0 °F /  7.2 °C 37.9 °F /  3.3 °C 29.40 in /  995.5 hPa WSW 9.0 mph /  14.5 km/h 20.0 mph /  32.2 km/h 76 % 0.00 in /  0 mm 255 W/m2
11:55 45.1 °F /  7.3 °C 38.0 °F /  3.3 °C 29.40 in /  995.5 hPa SW 9.0 mph /  14.5 km/h 20.0 mph /  32.2 km/h 76 % 0.00 in /  0 mm 352 W/m2
12:00 45.1 °F /  7.3 °C 38.0 °F /  3.3 °C 29.40 in /  995.5 hPa WSW 9.0 mph /  14.5 km/h 20.0 mph /  32.2 km/h 76 % 0.00 in /  0 mm 248 W/m2
12:05 45.0 °F /  7.2 °C 37.6 °F /  3.1 °C 29.40 in /  995.5 hPa SW 9.0 mph /  14.5 km/h 20.0 mph /  32.2 km/h 75 % 0.00 in /  0 mm 229 W/m2
12:10 44.9 °F /  7.2 °C 37.1 °F /  2.8 °C 29.40 in /  995.5 hPa WSW 9.0 mph /  14.5 km/h 20.0 mph /  32.2 km/h 74 % 0.00 in /  0 mm 274 W/m2
12:20 45.0 °F /  7.2 °C 37.6 °F /  3.1 °C 29.40 in /  995.5 hPa SW 8.0 mph /  12.9 km/h 20.0 mph /  32.2 km/h 75 % 0.00 in /  0 mm 329 W/m2
12:25 45.2 °F /  7.3 °C 38.1 °F /  3.4 °C 29.41 in /  995.8 hPa SSW 8.0 mph /  12.9 km/h 20.0 mph /  32.2 km/h 76 % 0.00 in /  0 mm 325 W/m2
12:30 45.4 °F /  7.4 °C 37.9 °F /  3.3 °C 29.41 in /  995.8 hPa SSW 8.0 mph /  12.9 km/h 8.0 mph /  12.9 km/h 75 % 0.00 in /  0 mm 355 W/m2
12:35 45.7 °F /  7.6 °C 37.9 °F /  3.3 °C 29.41 in /  995.8 hPa West 8.0 mph /  12.9 km/h 9.0 mph /  14.5 km/h 74 % 0.00 in /  0 mm 345 W/m2
12:45 46.1 °F /  7.8 °C 37.9 °F /  3.3 °C 29.41 in /  995.8 hPa SW 9.0 mph /  14.5 km/h 20.0 mph /  32.2 km/h 73 % 0.00 in /  0 mm 401 W/m2
12:50 46.4 °F /  8 °C 37.5 °F /  3.1 °C 29.41 in /  995.8 hPa WSW 9.0 mph /  14.5 km/h 20.0 mph /  32.2 km/h 71 % 0.00 in /  0 mm 401 W/m2
13:00 46.7 °F /  8.2 °C 37.1 °F /  2.8 °C 29.42 in /  996.2 hPa WSW 9.0 mph /  14.5 km/h 20.0 mph /  32.2 km/h 69 % 0.00 in /  0 mm 236 W/m2
13:05 46.5 °F /  8.1 °C 36.5 °F /  2.5 °C 29.42 in /  996.2 hPa SW 10.0 mph /  16.1 km/h 20.0 mph /  32.2 km/h 68 % 0.00 in /  0 mm 399 W/m2
13:10 46.6 °F /  8.1 °C 36.6 °F /  2.6 °C 29.41 in /  995.8 hPa WSW 9.0 mph /  14.5 km/h 20.0 mph /  32.2 km/h 68 % 0.00 in /  0 mm 381 W/m2
13:15 46.8 °F /  8.2 °C 36.8 °F /  2.7 °C 29.41 in /  995.8 hPa WSW 9.0 mph /  14.5 km/h 20.0 mph /  32.2 km/h 68 % 0.00 in /  0 mm 378 W/m2
13:20 47.0 °F /  8.3 °C 36.2 °F /  2.3 °C 29.41 in /  995.8 hPa West 9.0 mph /  14.5 km/h 20.0 mph /  32.2 km/h 66 % 0.00 in /  0 mm 371 W/m2
13:30 47.3 °F /  8.5 °C 36.1 °F /  2.3 °C 29.41 in /  995.8 hPa SW 9.0 mph /  14.5 km/h 9.0 mph /  14.5 km/h 65 % 0.00 in /  0 mm 352 W/m2
13:35 47.3 °F /  8.5 °C 35.7 °F /  2.1 °C 29.41 in /  995.8 hPa WSW 9.0 mph /  14.5 km/h 20.0 mph /  32.2 km/h 64 % 0.00 in /  0 mm 346 W/m2
13:40 47.5 °F /  8.6 °C 36.3 °F /  2.4 °C 29.41 in /  995.8 hPa SW 8.0 mph /  12.9 km/h 8.0 mph /  12.9 km/h 65 % 0.00 in /  0 mm 338 W/m2
13:45 47.5 °F /  8.6 °C 36.7 °F /  2.6 °C 29.41 in /  995.8 hPa South 8.0 mph /  12.9 km/h 20.0 mph /  32.2 km/h 66 % 0.00 in /  0 mm 332 W/m2
13:50 47.4 °F /  8.6 °C 36.6 °F /  2.6 °C 29.41 in /  995.8 hPa SSW 8.0 mph /  12.9 km/h 20.0 mph /  32.2 km/h 66 % 0.00 in /  0 mm 327 W/m2
14:00 47.5 °F /  8.6 °C 36.3 °F /  2.4 °C 29.41 in /  995.8 hPa SW 8.0 mph /  12.9 km/h 20.0 mph /  32.2 km/h 65 % 0.00 in /  0 mm 313 W/m2
14:05 47.5 °F /  8.6 °C 35.5 °F /  1.9 °C 29.42 in /  996.2 hPa SSW 8.0 mph /  12.9 km/h 20.0 mph /  32.2 km/h 63 % 0.00 in /  0 mm 302 W/m2
14:10 47.4 °F /  8.6 °C 35.4 °F /  1.9 °C 29.42 in /  996.2 hPa SSW 8.0 mph /  12.9 km/h 8.0 mph /  12.9 km/h 63 % 0.00 in /  0 mm 294 W/m2
14:15 47.5 °F /  8.6 °C 36.3 °F /  2.4 °C 29.42 in /  996.2 hPa South 8.0 mph /  12.9 km/h 10.0 mph /  16.1 km/h 65 % 0.00 in /  0 mm 287 W/m2
14:20 47.5 °F /  8.6 °C 36.3 °F /  2.4 °C 29.41 in /  995.8 hPa SW 7.0 mph /  11.3 km/h 20.0 mph /  32.2 km/h 65 % 0.00 in /  0 mm 279 W/m2
14:25 47.5 °F /  8.6 °C 36.3 °F /  2.4 °C 29.41 in /  995.8 hPa WSW 7.0 mph /  11.3 km/h 20.0 mph /  32.2 km/h 65 % 0.00 in /  0 mm 274 W/m2
14:35 47.5 °F /  8.6 °C 35.9 °F /  2.2 °C 29.41 in /  995.8 hPa SW 8.0 mph /  12.9 km/h 20.0 mph /  32.2 km/h 64 % 0.00 in /  0 mm 260 W/m2
14:40 47.4 °F /  8.6 °C 35.4 °F /  1.9 °C 29.42 in /  996.2 hPa WSW 8.0 mph /  12.9 km/h 20.0 mph /  32.2 km/h 63 % 0.00 in /  0 mm 250 W/m2
14:45 47.4 °F /  8.6 °C 35.4 °F /  1.9 °C 29.42 in /  996.2 hPa South 8.0 mph /  12.9 km/h 20.0 mph /  32.2 km/h 63 % 0.00 in /  0 mm 241 W/m2
14:50 47.5 °F /  8.6 °C 35.5 °F /  1.9 °C 29.42 in /  996.2 hPa SSW 7.0 mph /  11.3 km/h 7.0 mph /  11.3 km/h 63 % 0.00 in /  0 mm 232 W/m2
14:55 47.5 °F /  8.6 °C 35.5 °F /  1.9 °C 29.42 in /  996.2 hPa SW 6.0 mph /  9.7 km/h 20.0 mph /  32.2 km/h 63 % 0.00 in /  0 mm 221 W/m2
15:05 47.8 °F /  8.8 °C 36.6 °F /  2.6 °C 29.43 in /  996.5 hPa SSW 4.0 mph /  6.4 km/h 20.0 mph /  32.2 km/h 65 % 0.00 in /  0 mm 204 W/m2
15:10 47.6 °F /  8.7 °C 36.4 °F /  2.4 °C 29.43 in /  996.5 hPa SSW 6.0 mph /  9.7 km/h 20.0 mph /  32.2 km/h 65 % 0.00 in /  0 mm 192 W/m2
15:15 47.4 °F /  8.6 °C 36.6 °F /  2.6 °C 29.43 in /  996.5 hPa SW 6.0 mph /  9.7 km/h 20.0 mph /  32.2 km/h 66 % 0.00 in /  0 mm 181 W/m2
15:20 47.3 °F /  8.5 °C 36.9 °F /  2.7 °C 29.43 in /  996.5 hPa SSW 6.0 mph /  9.7 km/h 20.0 mph /  32.2 km/h 67 % 0.00 in /  0 mm 171 W/m2
15:25 47.0 °F /  8.3 °C 36.6 °F /  2.6 °C 29.43 in /  996.5 hPa South 6.0 mph /  9.7 km/h 20.0 mph /  32.2 km/h 67 % 0.00 in /  0 mm 160 W/m2
15:30 46.6 °F /  8.1 °C 36.2 °F /  2.3 °C 29.43 in /  996.5 hPa SSW 6.0 mph /  9.7 km/h 6.0 mph /  9.7 km/h 67 % 0.00 in /  0 mm 151 W/m2
15:40 46.0 °F /  7.8 °C 36.4 °F /  2.4 °C 29.43 in /  996.5 hPa SSW 6.0 mph /  9.7 km/h 20.0 mph /  32.2 km/h 69 % 0.00 in /  0 mm 35 W/m2
15:45 45.8 °F /  7.7 °C 36.6 °F /  2.6 °C 29.44 in /  996.8 hPa SSW 7.0 mph /  11.3 km/h 20.0 mph /  32.2 km/h 70 % 0.00 in /  0 mm 28 W/m2
15:50 45.6 °F /  7.6 °C 36.7 °F /  2.6 °C 29.44 in /  996.8 hPa South 6.0 mph /  9.7 km/h 6.0 mph /  9.7 km/h 71 % 0.00 in /  0 mm 26 W/m2
15:55 45.5 °F /  7.5 °C 36.6 °F /  2.6 °C 29.44 in /  996.8 hPa SSW 6.0 mph /  9.7 km/h 7.0 mph /  11.3 km/h 71 % 0.00 in /  0 mm 25 W/m2
16:00 45.3 °F /  7.4 °C 36.8 °F /  2.7 °C 29.43 in /  996.5 hPa SSW 6.0 mph /  9.7 km/h 20.0 mph /  32.2 km/h 72 % 0.00 in /  0 mm 23 W/m2
16:10 45.0 °F /  7.2 °C 36.5 °F /  2.5 °C 29.43 in /  996.5 hPa SSW 6.0 mph /  9.7 km/h 6.0 mph /  9.7 km/h 72 % 0.00 in /  0 mm 19 W/m2
16:15 45.0 °F /  7.2 °C 36.5 °F /  2.5 °C 29.44 in /  996.8 hPa SSW 4.0 mph /  6.4 km/h 7.0 mph /  11.3 km/h 72 % 0.00 in /  0 mm 18 W/m2
16:20 44.8 °F /  7.1 °C 36.3 °F /  2.4 °C 29.44 in /  996.8 hPa SSW 3.0 mph /  4.8 km/h 20.0 mph /  32.2 km/h 72 % 0.00 in /  0 mm 12 W/m2
16:25 44.6 °F /  7 °C 36.1 °F /  2.3 °C 29.44 in /  996.8 hPa SSW 4.0 mph /  6.4 km/h 20.0 mph /  32.2 km/h 72 % 0.00 in /  0 mm 11 W/m2
16:30 44.4 °F /  6.9 °C 36.3 °F /  2.4 °C 29.44 in /  996.8 hPa SSE 2.0 mph /  3.2 km/h 20.0 mph /  32.2 km/h 73 % 0.00 in /  0 mm 9 W/m2
16:35 44.1 °F /  6.7 °C 36.0 °F /  2.2 °C 29.44 in /  996.8 hPa South 3.0 mph /  4.8 km/h 20.0 mph /  32.2 km/h 73 % 0.00 in /  0 mm 9 W/m2
16:45 43.6 °F /  6.4 °C 35.9 °F /  2.2 °C 29.44 in /  996.8 hPa South 3.0 mph /  4.8 km/h 20.0 mph /  32.2 km/h 74 % 0.00 in /  0 mm 5 W/m2
16:50 43.3 °F /  6.3 °C 35.6 °F /  2 °C 29.44 in /  996.8 hPa South 3.0 mph /  4.8 km/h 20.0 mph /  32.2 km/h 74 % 0.00 in /  0 mm 5 W/m2
16:55 43.1 °F /  6.2 °C 35.4 °F /  1.9 °C 29.44 in /  996.8 hPa South 4.0 mph /  6.4 km/h 20.0 mph /  32.2 km/h 74 % 0.00 in /  0 mm 0 W/m2
17:00 43.0 °F /  6.1 °C 35.3 °F /  1.8 °C 29.44 in /  996.8 hPa SSW 5.0 mph /  8 km/h 5.0 mph /  8 km/h 74 % 0.00 in /  0 mm 0 W/m2
17:05 42.8 °F /  6 °C 35.4 °F /  1.9 °C 29.44 in /  996.8 hPa SSW 6.0 mph /  9.7 km/h 8.0 mph /  12.9 km/h 75 % 0.00 in /  0 mm 0 W/m2
17:15 42.6 °F /  5.9 °C 35.2 °F /  1.8 °C 29.45 in /  997.2 hPa SSW 4.0 mph /  6.4 km/h 20.0 mph /  32.2 km/h 75 % 0.00 in /  0 mm 0 W/m2
17:25 42.1 °F /  5.6 °C 35.1 °F /  1.7 °C 29.45 in /  997.2 hPa SSE 1.0 mph /  1.6 km/h 5.0 mph /  8 km/h 76 % 0.00 in /  0 mm 0 W/m2
17:30 41.8 °F /  5.4 °C 35.1 °F /  1.7 °C 29.45 in /  997.2 hPa SSE 3.0 mph /  4.8 km/h 3.0 mph /  4.8 km/h 77 % 0.00 in /  0 mm 0 W/m2
17:35 41.6 °F /  5.3 °C 34.9 °F /  1.6 °C 29.45 in /  997.2 hPa SSE 3.0 mph /  4.8 km/h 20.0 mph /  32.2 km/h 77 % 0.00 in /  0 mm 0 W/m2
17:40 41.4 °F /  5.2 °C 35.1 °F /  1.7 °C 29.45 in /  997.2 hPa SSE 3.0 mph /  4.8 km/h 3.0 mph /  4.8 km/h 78 % 0.00 in /  0 mm 0 W/m2
17:45 41.1 °F /  5.1 °C 34.8 °F /  1.6 °C 29.45 in /  997.2 hPa SSE 3.0 mph /  4.8 km/h 4.0 mph /  6.4 km/h 78 % 0.00 in /  0 mm 0 W/m2
17:50 40.8 °F /  4.9 °C 34.8 °F /  1.6 °C 29.45 in /  997.2 hPa SSE 2.0 mph /  3.2 km/h 20.0 mph /  32.2 km/h 79 % 0.00 in /  0 mm 0 W/m2
18:00 40.3 °F /  4.6 °C 34.6 °F /  1.4 °C 29.45 in /  997.2 hPa SSE 2.0 mph /  3.2 km/h 2.0 mph /  3.2 km/h 80 % 0.00 in /  0 mm 0 W/m2
18:05 40.0 °F /  4.4 °C 34.6 °F /  1.4 °C 29.46 in /  997.5 hPa SSE 2.0 mph /  3.2 km/h 20.0 mph /  32.2 km/h 81 % 0.00 in /  0 mm 0 W/m2
18:10 39.8 °F /  4.3 °C 34.4 °F /  1.3 °C 29.45 in /  997.2 hPa SSE 2.0 mph /  3.2 km/h 2.0 mph /  3.2 km/h 81 % 0.00 in /  0 mm 0 W/m2
18:15 39.7 °F /  4.3 °C 34.7 °F /  1.5 °C 29.46 in /  997.5 hPa SSE 1.0 mph /  1.6 km/h 4.0 mph /  6.4 km/h 82 % 0.00 in /  0 mm 0 W/m2
18:20 39.7 °F /  4.3 °C 34.7 °F /  1.5 °C 29.45 in /  997.2 hPa SSE 2.0 mph /  3.2 km/h 2.0 mph /  3.2 km/h 82 % 0.00 in /  0 mm 0 W/m2
18:30 39.3 °F /  4.1 °C 34.3 °F /  1.3 °C 29.45 in /  997.2 hPa Calm   20.0 mph /  32.2 km/h 82 % 0.00 in /  0 mm 0 W/m2
18:35 39.0 °F /  3.9 °C 34.3 °F /  1.3 °C 29.45 in /  997.2 hPa Calm   20.0 mph /  32.2 km/h 83 % 0.00 in /  0 mm 0 W/m2
18:40 38.6 °F /  3.7 °C 33.9 °F /  1.1 °C 29.45 in /  997.2 hPa Calm   20.0 mph /  32.2 km/h 83 % 0.00 in /  0 mm 0 W/m2
18:45 38.3 °F /  3.5 °C 33.6 °F /  0.9 °C 29.45 in /  997.2 hPa Calm   20.0 mph /  32.2 km/h 83 % 0.00 in /  0 mm 0 W/m2
18:50 38.0 °F /  3.3 °C 33.6 °F /  0.9 °C 29.45 in /  997.2 hPa Calm   20.0 mph /  32.2 km/h 84 % 0.00 in /  0 mm 0 W/m2
18:55 37.6 °F /  3.1 °C 33.5 °F /  0.8 °C 29.45 in /  997.2 hPa Calm   20.0 mph /  32.2 km/h 85 % 0.00 in /  0 mm 0 W/m2
19:05 37.1 °F /  2.8 °C 33.0 °F /  0.6 °C 29.46 in /  997.5 hPa Calm   20.0 mph /  32.2 km/h 85 % 0.00 in /  0 mm 0 W/m2
19:10 37.0 °F /  2.8 °C 33.5 °F /  0.8 °C 29.46 in /  997.5 hPa Calm   20.0 mph /  32.2 km/h 87 % 0.00 in /  0 mm 0 W/m2
19:15 37.0 °F /  2.8 °C 33.5 °F /  0.8 °C 29.46 in /  997.5 hPa Calm   20.0 mph /  32.2 km/h 87 % 0.00 in /  0 mm 0 W/m2
19:20 37.0 °F /  2.8 °C 33.5 °F /  0.8 °C 29.46 in /  997.5 hPa Calm   20.0 mph /  32.2 km/h 87 % 0.00 in /  0 mm 0 W/m2
19:25 37.0 °F /  2.8 °C 33.5 °F /  0.8 °C 29.45 in /  997.2 hPa Calm   20.0 mph /  32.2 km/h 87 % 0.00 in /  0 mm 0 W/m2
19:35 36.7 °F /  2.6 °C 33.2 °F /  0.7 °C 29.46 in /  997.5 hPa Calm   20.0 mph /  32.2 km/h 87 % 0.00 in /  0 mm 0 W/m2
19:40 36.5 °F /  2.5 °C 33.0 °F /  0.6 °C 29.46 in /  997.5 hPa Calm   20.0 mph /  32.2 km/h 87 % 0.00 in /  0 mm 0 W/m2
19:45 36.2 °F /  2.3 °C 33.0 °F /  0.6 °C 29.45 in /  997.2 hPa Calm   20.0 mph /  32.2 km/h 88 % 0.00 in /  0 mm 0 W/m2
19:50 36.1 °F /  2.3 °C 33.2 °F /  0.7 °C 29.46 in /  997.5 hPa SSE 1.0 mph /  1.6 km/h 20.0 mph /  32.2 km/h 89 % 0.00 in /  0 mm 0 W/m2
19:55 36.1 °F /  2.3 °C 33.2 °F /  0.7 °C 29.46 in /  997.5 hPa SSE 1.0 mph /  1.6 km/h 20.0 mph /  32.2 km/h 89 % 0.00 in /  0 mm 0 W/m2
20:00 36.2 °F /  2.3 °C 33.3 °F /  0.7 °C 29.46 in /  997.5 hPa ESE 1.0 mph /  1.6 km/h 20.0 mph /  32.2 km/h 89 % 0.00 in /  0 mm 0 W/m2
20:10 36.5 °F /  2.5 °C 33.8 °F /  1 °C 29.46 in /  997.5 hPa ESE 2.0 mph /  3.2 km/h 2.0 mph /  3.2 km/h 90 % 0.00 in /  0 mm 0 W/m2
20:15 36.4 °F /  2.4 °C 33.5 °F /  0.8 °C 29.46 in /  997.5 hPa ESE 2.0 mph /  3.2 km/h 20.0 mph /  32.2 km/h 89 % 0.00 in /  0 mm 0 W/m2
20:20 36.3 °F /  2.4 °C 33.4 °F /  0.8 °C 29.46 in /  997.5 hPa ESE 2.0 mph /  3.2 km/h 20.0 mph /  32.2 km/h 89 % 0.00 in /  0 mm 0 W/m2
20:25 36.3 °F /  2.4 °C 33.4 °F /  0.8 °C 29.46 in /  997.5 hPa ESE 2.0 mph /  3.2 km/h 20.0 mph /  32.2 km/h 89 % 0.00 in /  0 mm 0 W/m2
20:30 36.2 °F /  2.3 °C 33.3 °F /  0.7 °C 29.46 in /  997.5 hPa ESE 2.0 mph /  3.2 km/h 2.0 mph /  3.2 km/h 89 % 0.00 in /  0 mm 0 W/m2
20:40 36.1 °F /  2.3 °C 33.5 °F /  0.8 °C 29.46 in /  997.5 hPa ESE 1.0 mph /  1.6 km/h 1.0 mph /  1.6 km/h 90 % 0.00 in /  0 mm 0 W/m2
20:45 36.0 °F /  2.2 °C 33.4 °F /  0.8 °C 29.46 in /  997.5 hPa ESE 1.0 mph /  1.6 km/h 5.0 mph /  8 km/h 90 % 0.00 in /  0 mm 0 W/m2
20:50 36.1 °F /  2.3 °C 33.5 °F /  0.8 °C 29.46 in /  997.5 hPa ESE 1.0 mph /  1.6 km/h 20.0 mph /  32.2 km/h 90 % 0.00 in /  0 mm 0 W/m2
21:00 36.3 °F /  2.4 °C 33.6 °F /  0.9 °C 29.46 in /  997.5 hPa ESE 1.0 mph /  1.6 km/h 1.0 mph /  1.6 km/h 90 % 0.00 in /  0 mm 0 W/m2
21:05 36.3 °F /  2.4 °C 33.4 °F /  0.8 °C 29.46 in /  997.5 hPa ESE 1.0 mph /  1.6 km/h 20.0 mph /  32.2 km/h 89 % 0.00 in /  0 mm 0 W/m2
21:10 36.2 °F /  2.3 °C 33.3 °F /  0.7 °C 29.46 in /  997.5 hPa ESE 1.0 mph /  1.6 km/h 20.0 mph /  32.2 km/h 89 % 0.00 in /  0 mm 0 W/m2
21:15 36.1 °F /  2.3 °C 33.2 °F /  0.7 °C 29.46 in /  997.5 hPa ESE 1.0 mph /  1.6 km/h 20.0 mph /  32.2 km/h 89 % 0.00 in /  0 mm 0 W/m2
21:25 36.1 °F /  2.3 °C 33.5 °F /  0.8 °C 29.46 in /  997.5 hPa ESE 1.0 mph /  1.6 km/h 20.0 mph /  32.2 km/h 90 % 0.00 in /  0 mm 0 W/m2
21:30 36.2 °F /  2.3 °C 33.5 °F /  0.8 °C 29.46 in /  997.5 hPa SE 2.0 mph /  3.2 km/h 20.0 mph /  32.2 km/h 90 % 0.00 in /  0 mm 0 W/m2
21:35 36.2 °F /  2.3 °C 33.5 °F /  0.8 °C 29.46 in /  997.5 hPa SE 3.0 mph /  4.8 km/h 20.0 mph /  32.2 km/h 90 % 0.00 in /  0 mm 0 W/m2
21:40 36.3 °F /  2.4 °C 33.6 °F /  0.9 °C 29.46 in /  997.5 hPa SSE 3.0 mph /  4.8 km/h 3.0 mph /  4.8 km/h 90 % 0.00 in /  0 mm 0 W/m2
21:50 36.6 °F /  2.6 °C 33.9 °F /  1.1 °C 29.46 in /  997.5 hPa South 3.0 mph /  4.8 km/h 3.0 mph /  4.8 km/h 90 % 0.00 in /  0 mm 0 W/m2
21:55 36.6 °F /  2.6 °C 33.7 °F /  0.9 °C 29.46 in /  997.5 hPa SSE 2.0 mph /  3.2 km/h 20.0 mph /  32.2 km/h 89 % 0.00 in /  0 mm 0 W/m2
22:00 36.5 °F /  2.5 °C 33.6 °F /  0.9 °C 29.46 in /  997.5 hPa South 1.0 mph /  1.6 km/h 1.0 mph /  1.6 km/h 89 % 0.00 in /  0 mm 0 W/m2
22:05 36.4 °F /  2.4 °C 33.5 °F /  0.8 °C 29.46 in /  997.5 hPa South 1.0 mph /  1.6 km/h 20.0 mph /  32.2 km/h 89 % 0.00 in /  0 mm 0 W/m2
22:10 36.2 °F /  2.3 °C 33.3 °F /  0.7 °C 29.46 in /  997.5 hPa Calm   20.0 mph /  32.2 km/h 89 % 0.00 in /  0 mm 0 W/m2
22:20 36.1 °F /  2.3 °C 33.5 °F /  0.8 °C 29.46 in /  997.5 hPa SE 1.0 mph /  1.6 km/h 20.0 mph /  32.2 km/h 90 % 0.00 in /  0 mm 0 W/m2
22:25 36.0 °F /  2.2 °C 33.1 °F /  0.6 °C 29.46 in /  997.5 hPa SE 1.0 mph /  1.6 km/h 20.0 mph /  32.2 km/h 89 % 0.00 in /  0 mm 0 W/m2
22:30 35.9 °F /  2.2 °C 33.3 °F /  0.7 °C 29.46 in /  997.5 hPa SSE 1.0 mph /  1.6 km/h 20.0 mph /  32.2 km/h 90 % 0.00 in /  0 mm 0 W/m2
22:35 36.0 °F /  2.2 °C 33.4 °F /  0.8 °C 29.46 in /  997.5 hPa SSE 2.0 mph /  3.2 km/h 20.0 mph /  32.2 km/h 90 % 0.00 in /  0 mm 0 W/m2
22:40 36.0 °F /  2.2 °C 33.4 °F /  0.8 °C 29.46 in /  997.5 hPa SSE 3.0 mph /  4.8 km/h 3.0 mph /  4.8 km/h 90 % 0.00 in /  0 mm 0 W/m2
22:45 35.9 °F /  2.2 °C 33.3 °F /  0.7 °C 29.47 in /  997.9 hPa SSE 2.0 mph /  3.2 km/h 20.0 mph /  32.2 km/h 90 % 0.00 in /  0 mm 0 W/m2
22:55 35.7 °F /  2.1 °C 33.1 °F /  0.6 °C 29.46 in /  997.5 hPa SE 1.0 mph /  1.6 km/h 20.0 mph /  32.2 km/h 90 % 0.00 in /  0 mm 0 W/m2
23:00 35.6 °F /  2 °C 33.0 °F /  0.6 °C 29.46 in /  997.5 hPa SE 1.0 mph /  1.6 km/h 20.0 mph /  32.2 km/h 90 % 0.00 in /  0 mm 0 W/m2
23:05 35.5 °F /  1.9 °C 32.9 °F /  0.5 °C 29.46 in /  997.5 hPa SE 1.0 mph /  1.6 km/h 20.0 mph /  32.2 km/h 90 % 0.00 in /  0 mm 0 W/m2
23:10 35.4 °F /  1.9 °C 32.8 °F /  0.4 °C 29.46 in /  997.5 hPa Calm   20.0 mph /  32.2 km/h 90 % 0.00 in /  0 mm 0 W/m2
23:15 35.4 °F /  1.9 °C 32.8 °F /  0.4 °C 29.46 in /  997.5 hPa Calm   20.0 mph /  32.2 km/h 90 % 0.00 in /  0 mm 0 W/m2
23:25 35.3 °F /  1.8 °C 32.9 °F /  0.5 °C 29.46 in /  997.5 hPa Calm   20.0 mph /  32.2 km/h 91 % 0.00 in /  0 mm 0 W/m2
23:30 35.3 °F /  1.8 °C 32.9 °F /  0.5 °C 29.47 in /  997.9 hPa Calm   20.0 mph /  32.2 km/h 91 % 0.00 in /  0 mm 0 W/m2
23:35 35.2 °F /  1.8 °C 32.8 °F /  0.4 °C 29.46 in /  997.5 hPa Calm   20.0 mph /  32.2 km/h 91 % 0.00 in /  0 mm 0 W/m2
23:40 35.2 °F /  1.8 °C 32.8 °F /  0.4 °C 29.46 in /  997.5 hPa Calm   20.0 mph /  32.2 km/h 91 % 0.00 in /  0 mm 0 W/m2
23:45 35.1 °F /  1.7 °C 32.7 °F /  0.4 °C 29.46 in /  997.5 hPa Calm   20.0 mph /  32.2 km/h 91 % 0.00 in /  0 mm 0 W/m2
23:50 35.1 °F /  1.7 °C 32.7 °F /  0.4 °C 29.46 in /  997.5 hPa Calm   20.0 mph /  32.2 km/h 91 % 0.00 in /  0 mm 0 W/m2
Delerius-Weather
Compliments of Weather Underground - 2 mb

Data updates at regular intervals.